createdAt,value
2018-11-06T00:02:15.984Z,94.55
2018-11-06T00:04:49.250Z,94.25
2018-11-06T00:07:17.227Z,93.58
2018-11-06T00:09:45.254Z,93.87
2018-11-06T00:12:13.359Z,93.95
2018-11-06T00:14:41.529Z,93.71
2018-11-06T00:17:09.561Z,94.43
2018-11-06T00:19:37.514Z,94.18
2018-11-06T00:22:05.845Z,94.05
2018-11-06T00:24:33.854Z,93.17
2018-11-06T00:27:01.931Z,93.71
2018-11-06T00:29:29.880Z,94.17
2018-11-06T00:31:58.172Z,95.07
2018-11-06T00:34:26.137Z,95.74
2018-11-06T00:36:54.428Z,96.56
2018-11-06T00:39:22.731Z,97.42
2018-11-06T00:41:50.734Z,97.41
2018-11-06T00:44:18.769Z,97.58
2018-11-06T00:46:47.101Z,97.41
2018-11-06T00:49:15.144Z,97.22
2018-11-06T00:51:43.294Z,97.38
2018-11-06T00:54:11.195Z,97.17
2018-11-06T00:56:39.280Z,96.93
2018-11-06T00:59:07.418Z,96.69
2018-11-06T01:01:35.361Z,97.06
2018-11-06T01:04:08.615Z,96.41
2018-11-06T01:06:36.674Z,96.72
2018-11-06T01:09:06.300Z,96.35
2018-11-06T01:11:34.284Z,96.32
2018-11-06T01:14:02.431Z,96.86
2018-11-06T01:16:30.431Z,96.81
2018-11-06T01:18:58.442Z,97.22
2018-11-06T01:21:26.369Z,95.73
2018-11-06T01:23:54.399Z,95.60
2018-11-06T01:26:22.520Z,95.37
2018-11-06T01:28:50.553Z,95.46
2018-11-06T01:31:18.569Z,95.59
2018-11-06T01:33:46.852Z,95.83
2018-11-06T01:36:14.929Z,95.53
2018-11-06T01:38:43.091Z,95.24
2018-11-06T01:41:11.036Z,95.05
2018-11-06T01:43:39.106Z,94.74
2018-11-06T01:46:07.378Z,95.07
2018-11-06T01:48:35.399Z,95.19
2018-11-06T01:51:03.416Z,95.24
2018-11-06T01:53:31.441Z,95.19
2018-11-06T01:55:59.516Z,95.66
2018-11-06T01:58:27.634Z,95.57
2018-11-06T02:00:55.597Z,95.66
2018-11-06T02:03:25.132Z,95.86
2018-11-06T02:05:53.244Z,96.87
2018-11-06T02:08:21.301Z,96.66
2018-11-06T02:10:49.349Z,96.89
2018-11-06T02:13:17.471Z,97.21
2018-11-06T02:15:45.543Z,96.90
2018-11-06T02:18:13.589Z,96.83
2018-11-06T02:20:41.556Z,96.65
2018-11-06T02:23:09.609Z,97.16
2018-11-06T02:25:37.599Z,96.94
2018-11-06T02:28:05.716Z,96.82
2018-11-06T02:30:33.691Z,96.53
2018-11-06T02:33:01.707Z,96.70
2018-11-06T02:35:29.680Z,97.21
2018-11-06T02:37:57.773Z,96.61
2018-11-06T02:40:25.704Z,96.38
2018-11-06T02:42:53.789Z,96.66
2018-11-06T02:45:21.749Z,97.47
2018-11-06T02:47:49.861Z,97.17
2018-11-06T02:50:17.876Z,96.68
2018-11-06T02:52:45.853Z,95.88
2018-11-06T02:55:14.412Z,96.81
2018-11-06T02:57:42.865Z,96.17
2018-11-06T03:00:13.778Z,95.95
2018-11-06T03:02:42.206Z,96.23
2018-11-06T03:05:10.689Z,96.66
2018-11-06T03:07:38.889Z,97.19
2018-11-06T03:10:08.095Z,97.09
2018-11-06T03:12:36.105Z,96.80
2018-11-06T03:15:04.664Z,96.57
2018-11-06T03:17:32.685Z,96.09
2018-11-06T03:20:00.762Z,95.88
2018-11-06T03:22:28.766Z,97.01
2018-11-06T03:24:56.900Z,96.71
2018-11-06T03:27:24.943Z,96.38
2018-11-06T03:29:53.167Z,96.09
2018-11-06T03:32:21.180Z,95.98
2018-11-06T03:34:49.260Z,95.64
2018-11-06T03:37:17.235Z,94.69
2018-11-06T03:39:45.450Z,94.50
2018-11-06T03:42:13.527Z,94.39
2018-11-06T03:44:41.542Z,93.76
2018-11-06T03:47:09.527Z,93.83
2018-11-06T03:49:37.620Z,93.50
2018-11-06T03:52:05.850Z,93.94
2018-11-06T03:54:33.860Z,93.67
2018-11-06T03:57:01.810Z,94.18
2018-11-06T03:59:29.885Z,94.35
2018-11-06T04:01:57.906Z,94.34
2018-11-06T04:04:26.027Z,94.01
2018-11-06T04:06:54.060Z,94.00
2018-11-06T04:09:22.120Z,95.03
2018-11-06T04:11:50.110Z,94.45
2018-11-06T04:14:18.102Z,95.96
2018-11-06T04:16:46.082Z,96.44
2018-11-06T04:19:14.131Z,96.67
2018-11-06T04:21:42.126Z,96.04
2018-11-06T04:24:11.728Z,95.93
2018-11-06T04:26:40.389Z,96.10
2018-11-06T04:29:09.104Z,96.80
2018-11-06T04:31:37.945Z,96.83
2018-11-06T04:34:06.515Z,96.67
2018-11-06T04:36:34.527Z,97.33
2018-11-06T04:39:02.721Z,97.08
2018-11-06T04:41:30.677Z,97.39
2018-11-06T04:43:58.601Z,97.62
2018-11-06T04:46:26.617Z,97.57
2018-11-06T04:48:54.571Z,97.48
2018-11-06T04:51:22.605Z,97.78
2018-11-06T04:53:53.142Z,97.94
2018-11-06T04:56:21.150Z,97.70
2018-11-06T04:58:49.143Z,97.82
2018-11-06T05:01:17.167Z,97.71
2018-11-06T05:03:46.567Z,97.54
2018-11-06T05:06:15.616Z,97.75
2018-11-06T05:08:43.613Z,98.07
2018-11-06T05:11:11.648Z,98.02
2018-11-06T05:13:39.760Z,98.29
2018-11-06T05:16:07.820Z,98.34
2018-11-06T05:18:35.937Z,98.30
2018-11-06T05:21:04.654Z,98.17
2018-11-06T05:23:32.810Z,98.20
2018-11-06T05:26:01.074Z,98.35
2018-11-06T05:28:29.325Z,98.44
2018-11-06T05:30:57.550Z,98.60
2018-11-06T05:33:26.211Z,98.46
2018-11-06T05:35:54.471Z,98.55
2018-11-06T05:38:22.722Z,98.32
2018-11-06T05:40:59.345Z,98.23
2018-11-06T05:43:27.560Z,98.25
2018-11-06T05:45:56.079Z,98.40
2018-11-06T05:48:24.199Z,98.35
2018-11-06T05:50:52.463Z,98.35
2018-11-06T05:53:20.771Z,97.90
2018-11-06T05:55:49.379Z,97.77
2018-11-06T05:58:17.740Z,97.92
2018-11-06T06:00:46.233Z,97.45
2018-11-06T06:03:14.379Z,97.53
2018-11-06T06:05:42.779Z,97.64
2018-11-06T06:08:10.993Z,97.54
2018-11-06T06:10:39.699Z,97.74
2018-11-06T06:13:08.179Z,97.55
2018-11-06T06:15:36.532Z,97.03
2018-11-06T06:18:04.912Z,96.21
2018-11-06T06:20:33.212Z,95.65
2018-11-06T06:23:01.477Z,95.88
2018-11-06T06:25:29.846Z,96.38
2018-11-06T06:27:58.116Z,96.71
2018-11-06T06:30:26.426Z,97.32
2018-11-06T06:32:54.776Z,97.20
2018-11-06T06:35:23.117Z,96.81
2018-11-06T06:37:51.416Z,96.63
2018-11-06T06:40:19.616Z,96.65
2018-11-06T06:42:48.085Z,96.01
2018-11-06T06:45:17.609Z,95.51
2018-11-06T06:47:45.824Z,95.64
2018-11-06T06:50:15.216Z,95.65
2018-11-06T06:52:44.059Z,95.75
2018-11-06T06:55:13.373Z,96.00
2018-11-06T06:57:42.644Z,95.66
2018-11-06T07:00:13.324Z,94.53
2018-11-06T07:02:41.706Z,92.38
2018-11-06T07:05:11.544Z,91.25
2018-11-06T07:07:41.567Z,90.27
2018-11-06T07:10:11.549Z,90.26
2018-11-06T07:12:40.449Z,90.49
2018-11-06T07:15:11.321Z,90.89
2018-11-06T07:17:39.628Z,90.46
2018-11-06T07:20:11.153Z,91.50
2018-11-06T07:22:39.460Z,91.61
2018-11-06T07:25:08.983Z,91.85
2018-11-06T07:27:37.360Z,91.43
2018-11-06T07:30:07.830Z,91.09
2018-11-06T07:32:36.093Z,90.65
2018-11-06T07:35:05.440Z,90.23
2018-11-06T07:37:33.689Z,90.49
2018-11-06T07:40:02.309Z,91.02
2018-11-06T07:42:30.526Z,90.46
2018-11-06T07:44:58.769Z,90.77
2018-11-06T07:47:27.101Z,90.91
2018-11-06T07:49:55.429Z,90.83
2018-11-06T07:52:23.668Z,90.58
2018-11-06T07:54:51.866Z,90.10
2018-11-06T07:57:20.045Z,90.11
2018-11-06T07:59:48.725Z,90.39
2018-11-06T08:02:17.026Z,90.01
2018-11-06T08:04:45.266Z,90.33
2018-11-06T08:07:13.557Z,89.67
2018-11-06T08:09:41.802Z,89.91
2018-11-06T08:12:10.160Z,89.39
2018-11-06T08:14:38.410Z,89.43
2018-11-06T08:17:06.926Z,89.92
2018-11-06T08:19:35.066Z,88.84
2018-11-06T08:22:03.886Z,89.54
2018-11-06T08:24:32.106Z,89.05
2018-11-06T08:27:00.351Z,89.85
2018-11-06T08:29:28.468Z,89.04
2018-11-06T08:31:57.000Z,90.16
2018-11-06T08:34:24.966Z,90.37
2018-11-06T08:36:53.312Z,90.46
2018-11-06T08:39:21.606Z,90.13
2018-11-06T08:41:49.724Z,90.03
2018-11-06T08:44:17.999Z,89.70
2018-11-06T08:46:46.118Z,89.64
2018-11-06T08:49:14.413Z,89.87
2018-11-06T08:51:42.666Z,88.44
2018-11-06T08:54:10.889Z,88.69
2018-11-06T08:56:39.026Z,86.55
2018-11-06T08:59:07.315Z,87.52
2018-11-06T09:01:35.566Z,88.13
2018-11-06T09:04:03.834Z,87.36
2018-11-06T09:06:31.975Z,87.36
2018-11-06T09:09:00.337Z,87.45
2018-11-06T09:11:28.354Z,85.86
2018-11-06T09:13:56.597Z,85.03
2018-11-06T09:16:24.740Z,85.38
2018-11-06T09:18:52.977Z,85.61
2018-11-06T09:21:21.208Z,85.74
2018-11-06T09:23:49.369Z,85.89
2018-11-06T09:26:17.589Z,86.81
2018-11-06T09:28:45.869Z,86.42
2018-11-06T09:31:14.224Z,87.27
2018-11-06T09:33:42.464Z,86.86
2018-11-06T09:36:10.673Z,87.66
2018-11-06T09:38:38.993Z,88.15
2018-11-06T09:41:07.249Z,87.61
2018-11-06T09:43:35.673Z,88.00
2018-11-06T09:46:03.993Z,88.14
2018-11-06T09:48:32.345Z,87.13
2018-11-06T09:51:00.605Z,87.48
2018-11-06T09:53:28.906Z,87.30
2018-11-06T09:55:57.167Z,87.25
2018-11-06T09:58:25.465Z,86.57
2018-11-06T10:00:53.705Z,86.64
2018-11-06T10:03:22.052Z,87.06
2018-11-06T10:05:50.253Z,85.52
2018-11-06T10:08:18.653Z,85.81
2018-11-06T10:10:46.861Z,84.40
2018-11-06T10:13:15.045Z,85.05
2018-11-06T10:15:43.355Z,85.45
2018-11-06T10:18:11.561Z,84.21
2018-11-06T10:20:39.690Z,84.50
2018-11-06T10:23:07.942Z,84.49
2018-11-06T10:25:36.149Z,82.97
2018-11-06T10:28:04.869Z,82.55
2018-11-06T10:30:33.398Z,82.23
2018-11-06T10:33:01.654Z,82.45
2018-11-06T10:35:29.904Z,82.82
2018-11-06T10:37:58.221Z,81.10
2018-11-06T10:40:26.516Z,82.21
2018-11-06T10:42:54.646Z,82.28
2018-11-06T10:45:22.859Z,82.60
2018-11-06T10:47:51.013Z,82.17
2018-11-06T10:50:19.253Z,80.39
2018-11-06T10:52:48.121Z,81.87
2018-11-06T10:55:16.362Z,80.73
2018-11-06T10:57:44.602Z,80.14
2018-11-06T11:00:19.222Z,80.33
2018-11-06T11:02:52.805Z,79.33
2018-11-06T11:05:22.603Z,79.90
2018-11-06T11:07:50.842Z,79.89
2018-11-06T11:10:19.035Z,80.61
2018-11-06T11:12:47.233Z,81.52
2018-11-06T11:15:15.472Z,80.06
2018-11-06T11:17:43.764Z,80.34
2018-11-06T11:20:13.333Z,80.02
2018-11-06T11:22:42.069Z,79.71
2018-11-06T11:25:12.423Z,78.56
2018-11-06T11:27:41.067Z,78.23
2018-11-06T11:30:11.347Z,78.89
2018-11-06T11:32:40.452Z,77.96
2018-11-06T11:35:08.827Z,78.19
2018-11-06T11:37:37.157Z,76.24
2018-11-06T11:40:06.939Z,77.32
2018-11-06T11:42:35.167Z,77.39
2018-11-06T11:45:03.359Z,77.24
2018-11-06T11:47:31.574Z,77.36
2018-11-06T11:49:59.796Z,76.99
2018-11-06T11:52:28.034Z,77.43
2018-11-06T11:54:56.334Z,77.87
2018-11-06T11:57:24.534Z,77.49
2018-11-06T11:59:52.873Z,78.90
2018-11-06T12:02:21.166Z,79.14
2018-11-06T12:04:49.493Z,78.06
2018-11-06T12:07:17.636Z,77.13
2018-11-06T12:09:45.956Z,76.02
2018-11-06T12:12:14.156Z,77.33
2018-11-06T12:14:42.416Z,76.72
2018-11-06T12:17:10.798Z,75.56
2018-11-06T12:19:39.077Z,76.91
2018-11-06T12:22:07.690Z,75.47
2018-11-06T12:24:36.390Z,74.78
2018-11-06T12:27:04.756Z,74.88
2018-11-06T12:29:33.037Z,75.75
2018-11-06T12:32:01.159Z,75.58
2018-11-06T12:34:29.428Z,75.48
2018-11-06T12:36:57.746Z,75.32
2018-11-06T12:39:26.011Z,75.36
2018-11-06T12:41:54.616Z,74.91
2018-11-06T12:44:22.816Z,75.03
2018-11-06T12:46:51.056Z,74.83
2018-11-06T12:49:19.322Z,77.42
2018-11-06T12:51:47.533Z,74.79
2018-11-06T12:54:15.847Z,75.01
2018-11-06T12:56:44.219Z,73.70
2018-11-06T12:59:12.487Z,76.73
2018-11-06T13:01:40.751Z,74.67
2018-11-06T13:04:09.247Z,74.85
2018-11-06T13:06:37.878Z,74.92
2018-11-06T13:09:08.987Z,75.22
2018-11-06T13:11:37.798Z,75.45
2018-11-06T13:14:06.327Z,74.98
2018-11-06T13:16:35.996Z,76.90
2018-11-06T13:19:06.776Z,77.23
2018-11-06T13:21:36.088Z,77.00
2018-11-06T13:24:09.756Z,76.27
2018-11-06T13:26:40.723Z,76.70
2018-11-06T13:29:09.315Z,76.30
2018-11-06T13:31:38.023Z,76.70
2018-11-06T13:34:07.323Z,77.97
2018-11-06T13:36:35.783Z,77.54
2018-11-06T13:39:07.363Z,77.98
2018-11-06T13:41:39.195Z,77.85
2018-11-06T13:44:14.594Z,78.09
2018-11-06T13:46:44.109Z,77.21
2018-11-06T13:49:12.581Z,78.35
2018-11-06T13:51:41.001Z,77.98
2018-11-06T13:54:09.321Z,78.21
2018-11-06T13:56:37.741Z,78.53
2018-11-06T13:59:07.861Z,77.89
2018-11-06T14:01:36.309Z,78.85
2018-11-06T14:04:05.793Z,77.57
2018-11-06T14:06:34.234Z,78.25
2018-11-06T14:09:02.707Z,77.92
2018-11-06T14:11:32.075Z,78.02
2018-11-06T14:14:00.346Z,77.40
2018-11-06T14:16:29.851Z,78.26
2018-11-06T14:18:58.331Z,78.39
2018-11-06T14:21:27.703Z,78.43
2018-11-06T14:23:57.363Z,78.50
2018-11-06T14:26:26.002Z,79.61
2018-11-06T14:28:56.014Z,78.55
2018-11-06T14:31:25.212Z,79.60
2018-11-06T14:33:56.263Z,79.60
2018-11-06T14:36:24.431Z,79.82
2018-11-06T14:38:52.671Z,80.21
2018-11-06T14:41:21.023Z,79.38
2018-11-06T14:43:49.242Z,79.81
2018-11-06T14:46:17.523Z,80.10
2018-11-06T14:48:45.817Z,80.70
2018-11-06T14:51:14.198Z,81.27
2018-11-06T14:53:42.427Z,81.92
2018-11-06T14:56:10.854Z,81.90
2018-11-06T14:58:38.966Z,82.33
2018-11-06T15:01:07.205Z,83.13
2018-11-06T15:03:35.297Z,83.29
2018-11-06T15:06:03.498Z,83.84
2018-11-06T15:08:31.866Z,84.09
2018-11-06T15:10:59.918Z,84.78
2018-11-06T15:13:28.265Z,84.61
2018-11-06T15:15:56.441Z,85.24
2018-11-06T15:18:24.666Z,86.23
2018-11-06T15:20:52.989Z,86.56
2018-11-06T15:23:21.366Z,86.97
2018-11-06T15:25:49.488Z,85.14
2018-11-06T15:28:17.734Z,84.62
2018-11-06T15:30:45.927Z,84.75
2018-11-06T15:33:14.166Z,84.92
2018-11-06T15:35:42.347Z,84.87
2018-11-06T15:38:10.886Z,85.89
2018-11-06T15:40:39.106Z,85.55
2018-11-06T15:43:07.386Z,86.38
2018-11-06T15:45:35.577Z,86.19
2018-11-06T15:48:03.925Z,87.46
2018-11-06T15:50:32.097Z,87.20
2018-11-06T15:53:00.331Z,87.31
2018-11-06T15:55:28.590Z,87.18
2018-11-06T15:57:56.790Z,88.11
2018-11-06T16:00:25.033Z,87.92
2018-11-06T16:02:53.670Z,88.38
2018-11-06T16:05:21.896Z,88.56
2018-11-06T16:07:50.449Z,88.62
2018-11-06T16:10:21.772Z,88.95
2018-11-06T16:12:50.249Z,89.43
2018-11-06T16:15:18.501Z,89.32
2018-11-06T16:17:46.973Z,89.36
2018-11-06T16:20:17.449Z,90.08
2018-11-06T16:22:45.749Z,90.84
2018-11-06T16:25:14.973Z,90.43
2018-11-06T16:27:43.621Z,90.82
2018-11-06T16:30:15.964Z,90.47
2018-11-06T16:32:44.321Z,90.72
2018-11-06T16:35:13.817Z,91.04
2018-11-06T16:37:42.472Z,90.42
2018-11-06T16:40:11.316Z,90.75
2018-11-06T16:42:40.273Z,90.56
2018-11-06T16:45:10.921Z,91.20
2018-11-06T16:47:39.215Z,91.01
2018-11-06T16:50:08.658Z,91.13
2018-11-06T16:52:36.966Z,91.59
2018-11-06T16:55:05.460Z,91.57
2018-11-06T16:57:33.666Z,91.96
2018-11-06T17:00:02.042Z,92.25
2018-11-06T17:02:30.140Z,91.58
2018-11-06T17:04:58.387Z,92.04
2018-11-06T17:07:26.627Z,92.15
2018-11-06T17:09:54.793Z,92.10
2018-11-06T17:12:22.973Z,91.90
2018-11-06T17:14:51.147Z,92.18
2018-11-06T17:17:19.313Z,92.06
2018-11-06T17:19:47.552Z,92.30
2018-11-06T17:22:15.818Z,92.63
2018-11-06T17:24:44.031Z,92.71
2018-11-06T17:27:12.218Z,92.32
2018-11-06T17:29:40.430Z,92.49
2018-11-06T17:32:08.643Z,92.88
2018-11-06T17:34:36.960Z,93.23
2018-11-06T17:37:05.618Z,93.21
2018-11-06T17:39:34.015Z,91.95
2018-11-06T17:42:02.247Z,92.02
2018-11-06T17:44:30.503Z,92.06
2018-11-06T17:46:58.455Z,92.55
2018-11-06T17:49:26.540Z,92.35
2018-11-06T17:51:54.549Z,92.57
2018-11-06T17:54:22.628Z,92.70
2018-11-06T17:56:50.647Z,92.53
2018-11-06T17:59:18.748Z,92.80
2018-11-06T18:01:46.747Z,93.14
2018-11-06T18:04:14.886Z,93.10
2018-11-06T18:06:42.790Z,93.07
2018-11-06T18:09:12.294Z,93.26
2018-11-06T18:11:40.319Z,92.74
2018-11-06T18:14:08.492Z,91.96
2018-11-06T18:16:36.671Z,91.98
2018-11-06T18:19:04.962Z,92.17
2018-11-06T18:21:33.212Z,92.04
2018-11-06T18:24:01.480Z,92.10
2018-11-06T18:26:29.812Z,92.10
2018-11-06T18:28:58.100Z,92.54
2018-11-06T18:31:26.337Z,92.86
2018-11-06T18:33:54.812Z,92.88
2018-11-06T18:36:23.169Z,93.53
2018-11-06T18:38:51.599Z,92.76
2018-11-06T18:41:20.027Z,93.30
2018-11-06T18:43:48.617Z,93.48
2018-11-06T18:46:16.985Z,93.50
2018-11-06T18:48:45.494Z,93.06
2018-11-06T18:51:13.873Z,92.96
2018-11-06T18:53:42.341Z,92.98
2018-11-06T18:56:10.714Z,92.75
2018-11-06T18:58:39.163Z,92.97
2018-11-06T19:01:07.549Z,93.48
2018-11-06T19:03:36.618Z,93.53
2018-11-06T19:06:05.144Z,92.83
2018-11-06T19:08:33.517Z,92.47
2018-11-06T19:11:02.037Z,93.08
2018-11-06T19:13:30.447Z,93.17
2018-11-06T19:15:58.854Z,93.36
2018-11-06T19:18:27.230Z,93.79
2018-11-06T19:20:55.637Z,94.25
2018-11-06T19:23:24.150Z,94.16
2018-11-06T19:25:52.630Z,94.12
2018-11-06T19:28:21.049Z,94.10
2018-11-06T19:30:49.597Z,94.44
2018-11-06T19:33:18.096Z,94.20
2018-11-06T19:35:47.236Z,94.11
2018-11-06T19:38:15.775Z,94.41
2018-11-06T19:40:44.412Z,93.75
2018-11-06T19:43:12.893Z,93.41
2018-11-06T19:45:41.498Z,93.63
2018-11-06T19:48:10.175Z,93.31
2018-11-06T19:50:38.728Z,92.81
2018-11-06T19:53:07.162Z,92.53
2018-11-06T19:55:35.691Z,93.07
2018-11-06T19:58:05.480Z,93.83
2018-11-06T20:00:34.556Z,93.17
2018-11-06T20:03:03.500Z,93.29
2018-11-06T20:05:32.840Z,93.31
2018-11-06T20:08:01.438Z,93.68
2018-11-06T20:10:30.398Z,93.78
2018-11-06T20:12:59.592Z,93.49
2018-11-06T20:15:28.507Z,93.80
2018-11-06T20:17:58.077Z,93.81
2018-11-06T20:20:28.077Z,93.89
2018-11-06T20:22:57.278Z,93.93
2018-11-06T20:25:26.258Z,93.68
2018-11-06T20:27:55.202Z,93.76
2018-11-06T20:30:25.113Z,93.16
2018-11-06T20:32:55.106Z,93.75
2018-11-06T20:35:23.754Z,93.98
2018-11-06T20:37:53.035Z,93.68
2018-11-06T20:40:23.852Z,93.16
2018-11-06T20:42:53.046Z,93.11
2018-11-06T20:45:22.864Z,93.27
2018-11-06T20:47:51.754Z,93.59
2018-11-06T20:50:22.015Z,93.33
2018-11-06T20:52:50.891Z,93.60
2018-11-06T20:55:19.853Z,93.73
2018-11-06T20:57:51.720Z,93.84
2018-11-06T21:00:23.964Z,93.52
2018-11-06T21:02:53.981Z,92.43
2018-11-06T21:05:22.646Z,93.48
2018-11-06T21:07:51.212Z,93.61
2018-11-06T21:10:21.327Z,93.62
2018-11-06T21:12:49.856Z,94.00
2018-11-06T21:15:18.455Z,93.53
2018-11-06T21:17:47.018Z,93.81
2018-11-06T21:20:16.218Z,93.76
2018-11-06T21:22:44.580Z,93.35
2018-11-06T21:25:13.177Z,92.24
2018-11-06T21:27:42.268Z,92.03
2018-11-06T21:30:13.152Z,91.69
2018-11-06T21:32:42.717Z,91.96
2018-11-06T21:35:11.213Z,92.34
2018-11-06T21:37:40.063Z,92.54
2018-11-06T21:40:10.522Z,92.64
2018-11-06T21:42:38.800Z,92.42
2018-11-06T21:45:08.071Z,93.02
2018-11-06T21:47:36.196Z,92.69
2018-11-06T21:50:05.240Z,92.27
2018-11-06T21:52:33.407Z,92.68
2018-11-06T21:55:01.424Z,92.87
2018-11-06T21:57:29.588Z,92.80
2018-11-06T21:59:57.687Z,93.86
2018-11-06T22:02:25.739Z,93.33
2018-11-06T22:04:53.728Z,92.82
2018-11-06T22:07:21.883Z,92.15
2018-11-06T22:09:50.102Z,92.04
2018-11-06T22:12:19.247Z,92.39
2018-11-06T22:14:48.153Z,93.53
2018-11-06T22:17:17.513Z,92.80
2018-11-06T22:19:45.628Z,92.01
2018-11-06T22:22:13.716Z,92.06
2018-11-06T22:24:41.718Z,92.14
2018-11-06T22:27:09.781Z,91.96
2018-11-06T22:29:37.764Z,92.57
2018-11-06T22:32:05.852Z,92.89
2018-11-06T22:34:33.904Z,92.54
2018-11-06T22:37:02.062Z,93.23
2018-11-06T22:39:30.069Z,94.05
2018-11-06T22:41:58.114Z,93.97
2018-11-06T22:44:26.104Z,94.58
2018-11-06T22:46:54.146Z,94.27
2018-11-06T22:49:22.249Z,94.39
2018-11-06T22:51:50.272Z,94.49
2018-11-06T22:54:18.254Z,94.40
2018-11-06T22:56:46.666Z,94.00
2018-11-06T22:59:14.633Z,93.92
2018-11-06T23:01:42.694Z,94.45
2018-11-06T23:04:10.666Z,93.42
2018-11-06T23:06:38.773Z,93.07
2018-11-06T23:09:08.933Z,93.27
2018-11-06T23:11:37.068Z,93.40
2018-11-06T23:14:05.193Z,93.07
2018-11-06T23:16:33.253Z,93.32
2018-11-06T23:19:01.265Z,93.31
2018-11-06T23:21:29.415Z,93.35
2018-11-06T23:23:57.452Z,93.12
2018-11-06T23:26:25.559Z,93.58
2018-11-06T23:28:53.596Z,93.85
2018-11-06T23:31:21.618Z,92.38
2018-11-06T23:33:49.665Z,91.80
2018-11-06T23:36:17.732Z,91.39
2018-11-06T23:38:45.801Z,91.51
2018-11-06T23:41:13.870Z,90.12
2018-11-06T23:43:41.940Z,91.78
2018-11-06T23:46:09.920Z,92.45
2018-11-06T23:48:37.925Z,92.83
2018-11-06T23:51:06.000Z,93.11
2018-11-06T23:53:34.012Z,92.98
2018-11-06T23:56:01.970Z,93.29
2018-11-06T23:58:29.967Z,93.63
